sensor_id;sensor_type;location;lat;lon;timestamp;P1;durP1;ratioP1;P2;durP2;ratioP2
78122;SDS011;67376;44.802;10.332;2023-09-19T12:04:43;17.40;;;8.52;;
78122;SDS011;67376;44.802;10.332;2023-09-19T12:09:50;16.02;;;7.25;;
78122;SDS011;67376;44.802;10.332;2023-09-19T12:12:27;17.08;;;7.10;;
78122;SDS011;67376;44.802;10.332;2023-09-19T12:14:53;12.57;;;6.72;;
78122;SDS011;67376;44.802;10.332;2023-09-19T12:17:19;15.07;;;6.70;;
78122;SDS011;67376;44.802;10.332;2023-09-19T12:19:55;13.52;;;6.78;;
78122;SDS011;67376;44.802;10.332;2023-09-19T12:22:21;22.25;;;8.90;;
78122;SDS011;67376;44.802;10.332;2023-09-19T12:24:47;15.95;;;7.10;;
78122;SDS011;67376;44.802;10.332;2023-09-19T12:27:13;16.95;;;7.57;;
78122;SDS011;67376;44.802;10.332;2023-09-19T12:29:46;15.32;;;6.90;;
78122;SDS011;67376;44.802;10.332;2023-09-19T12:32:16;16.50;;;7.07;;
78122;SDS011;67376;44.802;10.332;2023-09-19T12:34:50;14.88;;;8.18;;
78122;SDS011;67376;44.802;10.332;2023-09-19T12:37:17;11.57;;;7.10;;
78122;SDS011;67376;44.802;10.332;2023-09-19T12:39:47;15.38;;;7.22;;
78122;SDS011;67376;44.802;10.332;2023-09-19T12:42:21;12.38;;;6.93;;
78122;SDS011;67376;44.802;10.332;2023-09-19T12:44:49;11.73;;;6.38;;
78122;SDS011;67376;44.802;10.332;2023-09-19T12:47:25;15.07;;;6.82;;
78122;SDS011;67376;44.802;10.332;2023-09-19T12:50:08;14.93;;;7.45;;
78122;SDS011;67376;44.802;10.332;2023-09-19T12:52:52;13.27;;;6.97;;
78122;SDS011;67376;44.802;10.332;2023-09-19T12:58:12;16.85;;;7.97;;
78122;SDS011;67376;44.802;10.332;2023-09-19T13:00:38;16.15;;;6.40;;
78122;SDS011;67376;44.802;10.332;2023-09-19T13:03:15;15.68;;;8.13;;
78122;SDS011;67376;44.802;10.332;2023-09-19T13:08:30;19.52;;;8.15;;
78122;SDS011;67376;44.802;10.332;2023-09-19T13:13:38;21.08;;;7.65;;
78122;SDS011;67376;44.802;10.332;2023-09-19T13:16:05;17.70;;;6.93;;
78122;SDS011;67376;44.802;10.332;2023-09-19T13:21:15;16.17;;;6.55;;
78122;SDS011;67376;44.802;10.332;2023-09-19T13:23:52;22.02;;;8.30;;
78122;SDS011;67376;44.802;10.332;2023-09-19T13:26:23;15.10;;;6.65;;
78122;SDS011;67376;44.802;10.332;2023-09-19T13:28:49;14.75;;;6.90;;
78122;SDS011;67376;44.802;10.332;2023-09-19T13:31:15;13.93;;;7.30;;
78122;SDS011;67376;44.802;10.332;2023-09-19T13:33:44;15.10;;;6.72;;
78122;SDS011;67376;44.802;10.332;2023-09-19T13:36:10;14.32;;;7.75;;
78122;SDS011;67376;44.802;10.332;2023-09-19T13:38:37;14.20;;;6.70;;
78122;SDS011;67376;44.802;10.332;2023-09-19T13:41:02;11.27;;;6.70;;
78122;SDS011;67376;44.802;10.332;2023-09-19T13:43:27;14.38;;;6.60;;
78122;SDS011;67376;44.802;10.332;2023-09-19T13:45:54;16.23;;;6.72;;
78122;SDS011;67376;44.802;10.332;2023-09-19T13:48:19;17.25;;;7.07;;
78122;SDS011;67376;44.802;10.332;2023-09-19T13:50:47;17.27;;;6.53;;
78122;SDS011;67376;44.802;10.332;2023-09-19T13:53:13;13.00;;;6.43;;
78122;SDS011;67376;44.802;10.332;2023-09-19T13:55:38;15.07;;;6.85;;
78122;SDS011;67376;44.802;10.332;2023-09-19T13:58:04;13.35;;;6.30;;
78122;SDS011;67376;44.802;10.332;2023-09-19T14:00:31;12.05;;;6.43;;
78122;SDS011;67376;44.802;10.332;2023-09-19T14:02:59;12.43;;;6.68;;
78122;SDS011;67376;44.802;10.332;2023-09-19T14:05:26;14.55;;;7.40;;
78122;SDS011;67376;44.802;10.332;2023-09-19T14:07:53;17.25;;;6.13;;
78122;SDS011;67376;44.802;10.332;2023-09-19T14:10:21;10.10;;;5.70;;
78122;SDS011;67376;44.802;10.332;2023-09-19T14:12:46;13.73;;;6.90;;
78122;SDS011;67376;44.802;10.332;2023-09-19T14:15:12;15.43;;;7.45;;
78122;SDS011;67376;44.802;10.332;2023-09-19T14:17:39;21.85;;;7.72;;
78122;SDS011;67376;44.802;10.332;2023-09-19T14:22:35;18.45;;;6.93;;
78122;SDS011;67376;44.802;10.332;2023-09-19T14:25:01;12.90;;;6.80;;
78122;SDS011;67376;44.802;10.332;2023-09-19T14:27:27;12.68;;;6.25;;
78122;SDS011;67376;44.802;10.332;2023-09-19T14:29:53;14.13;;;6.18;;
78122;SDS011;67376;44.802;10.332;2023-09-19T14:32:18;11.88;;;6.15;;
78122;SDS011;67376;44.802;10.332;2023-09-19T14:34:44;12.65;;;6.93;;
78122;SDS011;67376;44.802;10.332;2023-09-19T14:37:10;14.98;;;6.35;;
78122;SDS011;67376;44.802;10.332;2023-09-19T14:42:04;12.48;;;6.10;;
78122;SDS011;67376;44.802;10.332;2023-09-19T14:44:30;17.85;;;6.70;;
78122;SDS011;67376;44.802;10.332;2023-09-19T14:46:55;14.15;;;5.93;;
78122;SDS011;67376;44.802;10.332;2023-09-19T14:49:20;10.70;;;5.70;;
78122;SDS011;67376;44.802;10.332;2023-09-19T14:51:46;12.85;;;6.22;;
78122;SDS011;67376;44.802;10.332;2023-09-19T14:54:14;11.40;;;5.57;;
78122;SDS011;67376;44.802;10.332;2023-09-19T14:56:43;13.35;;;5.53;;
78122;SDS011;67376;44.802;10.332;2023-09-19T14:59:10;13.23;;;6.15;;
78122;SDS011;67376;44.802;10.332;2023-09-19T15:01:36;15.60;;;6.40;;
78122;SDS011;67376;44.802;10.332;2023-09-19T15:04:01;10.82;;;6.30;;
78122;SDS011;67376;44.802;10.332;2023-09-19T15:06:27;18.02;;;6.88;;
78122;SDS011;67376;44.802;10.332;2023-09-19T15:08:52;14.85;;;7.47;;
78122;SDS011;67376;44.802;10.332;2023-09-19T15:11:18;16.25;;;6.22;;
78122;SDS011;67376;44.802;10.332;2023-09-19T15:13:44;15.32;;;5.75;;
78122;SDS011;67376;44.802;10.332;2023-09-19T15:16:10;11.85;;;6.30;;
78122;SDS011;67376;44.802;10.332;2023-09-19T15:18:36;11.18;;;5.88;;
78122;SDS011;67376;44.802;10.332;2023-09-19T15:21:09;13.27;;;6.10;;
78122;SDS011;67376;44.802;10.332;2023-09-19T15:23:36;13.20;;;5.75;;
78122;SDS011;67376;44.802;10.332;2023-09-19T15:26:06;9.13;;;5.68;;
78122;SDS011;67376;44.802;10.332;2023-09-19T15:28:36;8.82;;;5.78;;
78122;SDS011;67376;44.802;10.332;2023-09-19T15:31:06;10.70;;;6.47;;
78122;SDS011;67376;44.802;10.332;2023-09-19T15:33:33;9.07;;;5.43;;
78122;SDS011;67376;44.802;10.332;2023-09-19T15:38:32;7.93;;;5.18;;
78122;SDS011;67376;44.802;10.332;2023-09-19T15:41:19;8.30;;;5.30;;
78122;SDS011;67376;44.802;10.332;2023-09-19T15:43:45;9.43;;;5.35;;
78122;SDS011;67376;44.802;10.332;2023-09-19T15:46:11;11.45;;;5.68;;
78122;SDS011;67376;44.802;10.332;2023-09-19T15:48:36;12.10;;;5.88;;
78122;SDS011;67376;44.802;10.332;2023-09-19T15:51:05;15.43;;;5.80;;
78122;SDS011;67376;44.802;10.332;2023-09-19T15:53:41;9.95;;;5.03;;
78122;SDS011;67376;44.802;10.332;2023-09-19T15:56:12;10.45;;;5.60;;
78122;SDS011;67376;44.802;10.332;2023-09-19T15:58:39;11.55;;;5.40;;
78122;SDS011;67376;44.802;10.332;2023-09-19T16:01:14;9.07;;;5.25;;
78122;SDS011;67376;44.802;10.332;2023-09-19T16:03:43;9.48;;;5.18;;
78122;SDS011;67376;44.802;10.332;2023-09-19T16:08:43;12.40;;;5.68;;
78122;SDS011;67376;44.802;10.332;2023-09-19T16:11:10;14.38;;;6.38;;
78122;SDS011;67376;44.802;10.332;2023-09-19T16:13:37;11.32;;;5.70;;
78122;SDS011;67376;44.802;10.332;2023-09-19T16:16:03;9.73;;;4.85;;
78122;SDS011;67376;44.802;10.332;2023-09-19T16:18:28;10.43;;;5.18;;
78122;SDS011;67376;44.802;10.332;2023-09-19T16:21:01;8.02;;;5.05;;
78122;SDS011;67376;44.802;10.332;2023-09-19T16:23:30;9.38;;;5.82;;
78122;SDS011;67376;44.802;10.332;2023-09-19T16:26:08;11.77;;;5.05;;
78122;SDS011;67376;44.802;10.332;2023-09-19T16:28:34;7.80;;;4.43;;
78122;SDS011;67376;44.802;10.332;2023-09-19T16:31:01;7.18;;;3.97;;
78122;SDS011;67376;44.802;10.332;2023-09-19T16:33:31;9.02;;;4.65;;
78122;SDS011;67376;44.802;10.332;2023-09-19T16:35:58;7.75;;;4.05;;
78122;SDS011;67376;44.802;10.332;2023-09-19T16:38:25;10.30;;;4.68;;
78122;SDS011;67376;44.802;10.332;2023-09-19T16:40:57;10.23;;;4.20;;
78122;SDS011;67376;44.802;10.332;2023-09-19T16:43:27;8.82;;;4.22;;
78122;SDS011;67376;44.802;10.332;2023-09-19T16:46:11;11.52;;;4.38;;
78122;SDS011;67376;44.802;10.332;2023-09-19T16:48:38;12.50;;;3.85;;
78122;SDS011;67376;44.802;10.332;2023-09-19T16:51:05;8.02;;;4.05;;
78122;SDS011;67376;44.802;10.332;2023-09-19T16:53:33;8.35;;;3.75;;
78122;SDS011;67376;44.802;10.332;2023-09-19T16:56:06;8.90;;;3.85;;
78122;SDS011;67376;44.802;10.332;2023-09-19T16:58:36;7.68;;;3.10;;
78122;SDS011;67376;44.802;10.332;2023-09-19T17:01:02;9.07;;;3.78;;
78122;SDS011;67376;44.802;10.332;2023-09-19T17:03:28;8.50;;;3.40;;
78122;SDS011;67376;44.802;10.332;2023-09-19T17:05:57;8.55;;;3.58;;
78122;SDS011;67376;44.802;10.332;2023-09-19T17:08:23;6.55;;;3.05;;
78122;SDS011;67376;44.802;10.332;2023-09-19T17:10:51;6.82;;;3.00;;
78122;SDS011;67376;44.802;10.332;2023-09-19T17:13:17;6.35;;;3.10;;
78122;SDS011;67376;44.802;10.332;2023-09-19T17:15:42;6.88;;;2.90;;
78122;SDS011;67376;44.802;10.332;2023-09-19T17:18:08;6.65;;;2.90;;
78122;SDS011;67376;44.802;10.332;2023-09-19T17:20:33;6.20;;;2.83;;
78122;SDS011;67376;44.802;10.332;2023-09-19T17:22:59;6.53;;;2.95;;
78122;SDS011;67376;44.802;10.332;2023-09-19T17:25:24;8.93;;;3.17;;
78122;SDS011;67376;44.802;10.332;2023-09-19T17:27:53;5.10;;;2.78;;
78122;SDS011;67376;44.802;10.332;2023-09-19T17:30:18;7.65;;;3.03;;
78122;SDS011;67376;44.802;10.332;2023-09-19T17:32:45;8.38;;;2.47;;
78122;SDS011;67376;44.802;10.332;2023-09-19T17:35:11;8.40;;;2.55;;
78122;SDS011;67376;44.802;10.332;2023-09-19T17:37:38;5.40;;;2.58;;
78122;SDS011;67376;44.802;10.332;2023-09-19T17:40:12;5.60;;;2.55;;
78122;SDS011;67376;44.802;10.332;2023-09-19T17:42:38;4.25;;;2.33;;
78122;SDS011;67376;44.802;10.332;2023-09-19T17:45:06;5.20;;;2.30;;
78122;SDS011;67376;44.802;10.332;2023-09-19T17:52:28;5.32;;;2.65;;
78122;SDS011;67376;44.802;10.332;2023-09-19T17:54:54;6.70;;;2.38;;
78122;SDS011;67376;44.802;10.332;2023-09-19T17:57:20;5.05;;;2.38;;
78122;SDS011;67376;44.802;10.332;2023-09-19T17:59:46;5.55;;;2.47;;
78122;SDS011;67376;44.802;10.332;2023-09-19T18:02:12;7.43;;;2.35;;
78122;SDS011;67376;44.802;10.332;2023-09-19T18:04:37;5.13;;;2.50;;
78122;SDS011;67376;44.802;10.332;2023-09-19T18:07:03;3.45;;;2.08;;
78122;SDS011;67376;44.802;10.332;2023-09-19T18:09:28;6.38;;;2.08;;
78122;SDS011;67376;44.802;10.332;2023-09-19T18:11:54;5.97;;;2.00;;
78122;SDS011;67376;44.802;10.332;2023-09-19T18:14:19;7.38;;;2.20;;
78122;SDS011;67376;44.802;10.332;2023-09-19T18:16:45;3.72;;;1.80;;
78122;SDS011;67376;44.802;10.332;2023-09-19T18:19:10;5.93;;;2.50;;
78122;SDS011;67376;44.802;10.332;2023-09-19T18:21:37;6.63;;;2.58;;
78122;SDS011;67376;44.802;10.332;2023-09-19T18:24:02;5.22;;;2.38;;
78122;SDS011;67376;44.802;10.332;2023-09-19T18:26:39;6.30;;;2.10;;
78122;SDS011;67376;44.802;10.332;2023-09-19T18:29:05;4.78;;;1.90;;
78122;SDS011;67376;44.802;10.332;2023-09-19T18:31:30;4.63;;;2.08;;
78122;SDS011;67376;44.802;10.332;2023-09-19T18:33:59;4.22;;;1.95;;
78122;SDS011;67376;44.802;10.332;2023-09-19T18:36:25;4.70;;;2.35;;
78122;SDS011;67376;44.802;10.332;2023-09-19T18:38:53;4.15;;;2.00;;
78122;SDS011;67376;44.802;10.332;2023-09-19T18:41:19;4.88;;;2.20;;
78122;SDS011;67376;44.802;10.332;2023-09-19T18:43:44;4.85;;;2.53;;
78122;SDS011;67376;44.802;10.332;2023-09-19T18:46:10;5.43;;;2.40;;
78122;SDS011;67376;44.802;10.332;2023-09-19T18:48:37;4.03;;;2.20;;
78122;SDS011;67376;44.802;10.332;2023-09-19T18:51:06;5.28;;;2.28;;
78122;SDS011;67376;44.802;10.332;2023-09-19T18:53:32;6.93;;;2.00;;
78122;SDS011;67376;44.802;10.332;2023-09-19T18:56:08;5.68;;;2.10;;
78122;SDS011;67376;44.802;10.332;2023-09-19T18:58:39;4.88;;;2.08;;
78122;SDS011;67376;44.802;10.332;2023-09-19T19:01:08;4.40;;;2.40;;
78122;SDS011;67376;44.802;10.332;2023-09-19T19:03:34;5.22;;;2.33;;
78122;SDS011;67376;44.802;10.332;2023-09-19T19:06:04;7.93;;;2.42;;
78122;SDS011;67376;44.802;10.332;2023-09-19T19:08:30;5.28;;;2.28;;
78122;SDS011;67376;44.802;10.332;2023-09-19T19:10:57;3.80;;;2.00;;
78122;SDS011;67376;44.802;10.332;2023-09-19T19:13:23;5.22;;;2.42;;
78122;SDS011;67376;44.802;10.332;2023-09-19T19:15:48;5.55;;;2.33;;
78122;SDS011;67376;44.802;10.332;2023-09-19T19:18:13;3.22;;;1.98;;
78122;SDS011;67376;44.802;10.332;2023-09-19T19:20:39;4.80;;;2.00;;
78122;SDS011;67376;44.802;10.332;2023-09-19T19:23:06;6.05;;;2.30;;
78122;SDS011;67376;44.802;10.332;2023-09-19T19:25:33;5.63;;;2.40;;
78122;SDS011;67376;44.802;10.332;2023-09-19T19:27:59;4.85;;;2.30;;
78122;SDS011;67376;44.802;10.332;2023-09-19T19:30:24;4.78;;;2.72;;
78122;SDS011;67376;44.802;10.332;2023-09-19T19:32:50;7.00;;;2.30;;
78122;SDS011;67376;44.802;10.332;2023-09-19T19:35:16;6.68;;;2.30;;
78122;SDS011;67376;44.802;10.332;2023-09-19T19:37:42;4.35;;;2.08;;
78122;SDS011;67376;44.802;10.332;2023-09-19T19:40:08;6.32;;;2.65;;
78122;SDS011;67376;44.802;10.332;2023-09-19T19:42:35;8.02;;;2.60;;
78122;SDS011;67376;44.802;10.332;2023-09-19T19:45:01;7.88;;;2.40;;
78122;SDS011;67376;44.802;10.332;2023-09-19T19:47:26;7.38;;;2.38;;
78122;SDS011;67376;44.802;10.332;2023-09-19T19:49:53;5.13;;;2.40;;
78122;SDS011;67376;44.802;10.332;2023-09-19T19:52:19;3.40;;;1.80;;
78122;SDS011;67376;44.802;10.332;2023-09-19T19:54:44;10.40;;;2.20;;
78122;SDS011;67376;44.802;10.332;2023-09-19T19:57:10;5.50;;;2.30;;
78122;SDS011;67376;44.802;10.332;2023-09-19T19:59:35;9.10;;;3.08;;
78122;SDS011;67376;44.802;10.332;2023-09-19T20:02:01;5.75;;;2.45;;
78122;SDS011;67376;44.802;10.332;2023-09-19T20:04:28;5.95;;;2.47;;
78122;SDS011;67376;44.802;10.332;2023-09-19T20:06:54;4.53;;;2.45;;
78122;SDS011;67376;44.802;10.332;2023-09-19T20:09:20;3.92;;;2.30;;
78122;SDS011;67376;44.802;10.332;2023-09-19T20:11:46;6.75;;;2.20;;
78122;SDS011;67376;44.802;10.332;2023-09-19T20:14:12;3.60;;;1.90;;
78122;SDS011;67376;44.802;10.332;2023-09-19T20:16:40;7.03;;;1.90;;
78122;SDS011;67376;44.802;10.332;2023-09-19T20:19:07;4.28;;;2.28;;
78122;SDS011;67376;44.802;10.332;2023-09-19T20:21:34;8.05;;;2.40;;
78122;SDS011;67376;44.802;10.332;2023-09-19T20:24:00;3.75;;;2.00;;
78122;SDS011;67376;44.802;10.332;2023-09-19T20:26:32;5.03;;;2.40;;
78122;SDS011;67376;44.802;10.332;2023-09-19T20:28:59;5.88;;;2.20;;
78122;SDS011;67376;44.802;10.332;2023-09-19T20:31:25;7.40;;;2.17;;
78122;SDS011;67376;44.802;10.332;2023-09-19T20:33:50;5.22;;;2.20;;
78122;SDS011;67376;44.802;10.332;2023-09-19T20:36:16;6.35;;;2.10;;
78122;SDS011;67376;44.802;10.332;2023-09-19T20:38:41;5.18;;;2.20;;
78122;SDS011;67376;44.802;10.332;2023-09-19T20:41:07;4.45;;;2.35;;
78122;SDS011;67376;44.802;10.332;2023-09-19T20:43:33;3.83;;;2.05;;
78122;SDS011;67376;44.802;10.332;2023-09-19T20:46:02;5.38;;;2.03;;
78122;SDS011;67376;44.802;10.332;2023-09-19T20:48:32;5.30;;;2.60;;
78122;SDS011;67376;44.802;10.332;2023-09-19T20:51:08;6.30;;;2.10;;
78122;SDS011;67376;44.802;10.332;2023-09-19T20:53:37;6.47;;;2.30;;
78122;SDS011;67376;44.802;10.332;2023-09-19T20:56:06;3.63;;;1.85;;
78122;SDS011;67376;44.802;10.332;2023-09-19T20:58:32;6.47;;;2.20;;
78122;SDS011;67376;44.802;10.332;2023-09-19T21:01:01;6.88;;;1.80;;
78122;SDS011;67376;44.802;10.332;2023-09-19T21:03:29;4.60;;;2.05;;
78122;SDS011;67376;44.802;10.332;2023-09-19T21:06:02;5.85;;;2.65;;
78122;SDS011;67376;44.802;10.332;2023-09-19T21:08:30;3.65;;;1.90;;
78122;SDS011;67376;44.802;10.332;2023-09-19T21:10:57;5.55;;;2.28;;
78122;SDS011;67376;44.802;10.332;2023-09-19T21:13:23;4.40;;;1.88;;
78122;SDS011;67376;44.802;10.332;2023-09-19T21:15:48;6.70;;;2.45;;
78122;SDS011;67376;44.802;10.332;2023-09-19T21:18:14;5.90;;;1.88;;
78122;SDS011;67376;44.802;10.332;2023-09-19T21:20:39;4.43;;;1.90;;
78122;SDS011;67376;44.802;10.332;2023-09-19T21:23:05;5.43;;;2.10;;
78122;SDS011;67376;44.802;10.332;2023-09-19T21:25:34;5.55;;;1.98;;
78122;SDS011;67376;44.802;10.332;2023-09-19T21:28:00;4.28;;;1.92;;
78122;SDS011;67376;44.802;10.332;2023-09-19T21:30:26;4.28;;;2.10;;
78122;SDS011;67376;44.802;10.332;2023-09-19T21:32:51;4.78;;;1.88;;
78122;SDS011;67376;44.802;10.332;2023-09-19T21:35:18;5.35;;;2.00;;
78122;SDS011;67376;44.802;10.332;2023-09-19T21:37:44;3.28;;;1.85;;
78122;SDS011;67376;44.802;10.332;2023-09-19T21:40:10;4.88;;;2.30;;
78122;SDS011;67376;44.802;10.332;2023-09-19T21:42:35;5.53;;;1.98;;
78122;SDS011;67376;44.802;10.332;2023-09-19T21:45:02;3.35;;;1.90;;
78122;SDS011;67376;44.802;10.332;2023-09-19T21:47:28;6.72;;;2.38;;
78122;SDS011;67376;44.802;10.332;2023-09-19T21:49:53;3.97;;;1.85;;
78122;SDS011;67376;44.802;10.332;2023-09-19T21:52:18;5.43;;;2.30;;
78122;SDS011;67376;44.802;10.332;2023-09-19T21:54:44;3.85;;;2.15;;
78122;SDS011;67376;44.802;10.332;2023-09-19T21:57:09;2.88;;;1.60;;
78122;SDS011;67376;44.802;10.332;2023-09-19T21:59:34;3.30;;;1.75;;
78122;SDS011;67376;44.802;10.332;2023-09-19T22:02:00;3.90;;;2.15;;
78122;SDS011;67376;44.802;10.332;2023-09-19T22:04:25;3.78;;;2.10;;
78122;SDS011;67376;44.802;10.332;2023-09-19T22:06:51;3.08;;;1.60;;
78122;SDS011;67376;44.802;10.332;2023-09-19T22:09:16;4.97;;;1.98;;
78122;SDS011;67376;44.802;10.332;2023-09-19T22:11:41;4.43;;;1.88;;
78122;SDS011;67376;44.802;10.332;2023-09-19T22:14:07;3.42;;;1.70;;
78122;SDS011;67376;44.802;10.332;2023-09-19T22:16:32;3.85;;;2.15;;
78122;SDS011;67376;44.802;10.332;2023-09-19T22:18:57;3.15;;;1.80;;
78122;SDS011;67376;44.802;10.332;2023-09-19T22:21:24;2.88;;;1.65;;
78122;SDS011;67376;44.802;10.332;2023-09-19T22:23:56;3.08;;;1.83;;
78122;SDS011;67376;44.802;10.332;2023-09-19T22:26:24;2.92;;;1.75;;
78122;SDS011;67376;44.802;10.332;2023-09-19T22:28:51;3.15;;;1.75;;
78122;SDS011;67376;44.802;10.332;2023-09-19T22:31:19;4.95;;;1.80;;
78122;SDS011;67376;44.802;10.332;2023-09-19T22:33:51;2.70;;;1.73;;
78122;SDS011;67376;44.802;10.332;2023-09-19T22:36:19;3.03;;;2.00;;
78122;SDS011;67376;44.802;10.332;2023-09-19T22:38:52;2.60;;;1.70;;
78122;SDS011;67376;44.802;10.332;2023-09-19T22:41:18;2.72;;;1.63;;
78122;SDS011;67376;44.802;10.332;2023-09-19T22:43:46;4.55;;;1.80;;
78122;SDS011;67376;44.802;10.332;2023-09-19T22:46:14;3.35;;;1.75;;
78122;SDS011;67376;44.802;10.332;2023-09-19T22:48:42;4.15;;;1.90;;
78122;SDS011;67376;44.802;10.332;2023-09-19T22:51:07;3.63;;;1.85;;
78122;SDS011;67376;44.802;10.332;2023-09-19T22:53:37;4.25;;;2.13;;
78122;SDS011;67376;44.802;10.332;2023-09-19T22:56:10;3.15;;;1.80;;
78122;SDS011;67376;44.802;10.332;2023-09-19T22:58:40;3.75;;;2.13;;
78122;SDS011;67376;44.802;10.332;2023-09-19T23:01:12;4.40;;;1.80;;
78122;SDS011;67376;44.802;10.332;2023-09-19T23:03:48;3.00;;;1.90;;
78122;SDS011;67376;44.802;10.332;2023-09-19T23:06:19;3.88;;;1.90;;
78122;SDS011;67376;44.802;10.332;2023-09-19T23:08:49;3.65;;;1.67;;
78122;SDS011;67376;44.802;10.332;2023-09-19T23:11:18;4.20;;;1.80;;
78122;SDS011;67376;44.802;10.332;2023-09-19T23:13:50;4.47;;;2.30;;
78122;SDS011;67376;44.802;10.332;2023-09-19T23:26:24;3.42;;;1.65;;
78122;SDS011;67376;44.802;10.332;2023-09-19T23:28:50;2.38;;;1.50;;
78122;SDS011;67376;44.802;10.332;2023-09-19T23:31:16;3.85;;;2.05;;
78122;SDS011;67376;44.802;10.332;2023-09-19T23:33:42;4.82;;;1.63;;
78122;SDS011;67376;44.802;10.332;2023-09-19T23:36:08;3.67;;;2.15;;
78122;SDS011;67376;44.802;10.332;2023-09-19T23:38:37;4.30;;;2.13;;
78122;SDS011;67376;44.802;10.332;2023-09-19T23:41:03;2.83;;;1.75;;
78122;SDS011;67376;44.802;10.332;2023-09-19T23:43:33;3.75;;;1.88;;
78122;SDS011;67376;44.802;10.332;2023-09-19T23:46:01;4.65;;;1.60;;
78122;SDS011;67376;44.802;10.332;2023-09-19T23:48:29;3.88;;;1.63;;
78122;SDS011;67376;44.802;10.332;2023-09-19T23:50:59;3.65;;;1.98;;
78122;SDS011;67376;44.802;10.332;2023-09-19T23:53:27;3.80;;;1.77;;
78122;SDS011;67376;44.802;10.332;2023-09-19T23:55:53;4.40;;;1.88;;
78122;SDS011;67376;44.802;10.332;2023-09-19T23:58:19;3.45;;;1.70;;
